Time;durP1;ratioP1;P1;durP2;ratioP2;P2;SDS_P1;SDS_P2;PMS_P1;PMS_P2;Temp;Humidity;BMP_temperature;BMP_pressure;BME280_temperature;BME280_humidity;BME280_pressure;Samples;Min_cycle;Max_cycle;Signal;HPM_P1;HPM_P2
2023/03/11 00:01:16;;;;;;;22.60;11.30;;;;;;;7.53;69.35;97587.86;111284;1251;21971;-80
2023/03/11 00:03:44;;;;;;;14.50;9.30;;;;;;;7.52;69.32;97580.70;111624;1251;23025;-78
2023/03/11 00:06:16;;;;;;;10.70;7.40;;;;;;;7.47;69.25;97578.48;111727;1251;21988;-80
2023/03/11 00:08:44;;;;;;;15.80;8.90;;;;;;;7.42;69.40;97573.42;111594;1251;21971;-79
2023/03/11 00:11:12;;;;;;;14.40;8.70;;;;;;;7.37;69.33;97576.67;111841;1245;21961;-79
2023/03/11 00:13:42;;;;;;;15.30;8.80;;;;;;;7.31;69.52;97581.99;112179;1239;21923;-80
2023/03/11 00:16:12;;;;;;;18.20;10.60;;;;;;;7.24;69.47;97581.95;112817;1239;22421;-80
2023/03/11 00:18:41;;;;;;;28.40;13.50;;;;;;;7.18;69.63;97577.13;112622;1232;24099;-79
2023/03/11 00:21:16;;;;;;;19.60;12.40;;;;;;;7.12;69.69;97577.23;113221;1233;23689;-79
2023/03/11 00:23:46;;;;;;;17.20;10.60;;;;;;;7.07;69.86;97576.30;112666;1239;21979;-79
2023/03/11 00:26:14;;;;;;;18.80;10.00;;;;;;;7.04;69.94;97580.34;112959;1239;21989;-79
2023/03/11 00:28:43;;;;;;;17.00;8.60;;;;;;;7.03;70.11;97576.73;113147;1239;22940;-78
2023/03/11 00:31:13;;;;;;;14.00;8.40;;;;;;;7.07;70.21;97578.27;112810;1239;22865;-79
2023/03/11 00:33:47;;;;;;;9.40;7.00;;;;;;;7.11;70.40;97579.36;112724;1239;21954;-79
2023/03/11 00:36:33;;;;;;;10.00;7.70;;;;;;;7.12;70.44;97578.45;112960;1239;23067;-77
2023/03/11 00:39:07;;;;;;;9.00;7.00;;;;;;;7.13;70.70;97576.29;112805;1239;21941;-78
2023/03/11 00:41:36;;;;;;;7.40;6.00;;;;;;;7.16;70.69;97575.38;112834;1233;21964;-78
2023/03/11 00:44:04;;;;;;;8.60;6.50;;;;;;;7.22;70.89;97573.53;113102;1239;21941;-78
2023/03/11 00:46:36;;;;;;;12.10;7.40;;;;;;;7.28;70.80;97569.23;112050;1245;21925;-78
2023/03/11 00:49:10;;;;;;;9.20;7.70;;;;;;;7.31;70.75;97570.58;112044;1245;21961;-80
2023/03/11 00:51:41;;;;;;;10.80;7.60;;;;;;;7.36;70.89;97568.84;112185;1245;21946;-79
2023/03/11 00:54:10;;;;;;;8.90;6.00;;;;;;;7.39;70.79;97566.35;112055;1245;21959;-78
2023/03/11 00:56:41;;;;;;;;;;;;;;;7.43;70.91;97566.08;112069;1245;21947;-79
2023/03/11 00:59:10;;;;;;;8.40;6.00;;;;;;;7.42;71.19;97563.89;111673;1249;22037;-79
2023/03/11 01:01:39;;;;;;;8.20;5.80;;;;;;;7.47;71.14;97560.61;111753;1249;21963;-78
2023/03/11 01:04:07;;;;;;;10.20;6.20;;;;;;;7.53;71.07;97556.92;111841;1244;21951;-79
2023/03/11 01:06:37;;;;;;;7.50;5.60;;;;;;;7.56;70.90;97551.49;112338;1244;22712;-78
2023/03/11 01:09:36;;;;;;;8.90;6.50;;;;;;;7.57;70.98;97547.95;112811;1239;21974;-78
2023/03/11 01:12:28;;;;;;;7.90;7.10;;;;;;;7.55;70.88;97541.17;112771;1239;21948;-79
2023/03/11 01:14:57;;;;;;;10.00;7.50;;;;;;;7.56;70.83;97538.71;112599;1240;22161;-78
2023/03/11 01:17:25;;;;;;;7.00;6.30;;;;;;;7.56;70.80;97536.81;112631;1239;21940;-79
2023/03/11 01:19:59;;;;;;;7.90;5.60;;;;;;;7.55;70.74;97535.85;113221;1239;21946;-78
2023/03/11 01:22:27;;;;;;;8.30;6.90;;;;;;;7.55;70.80;97537.21;112715;1238;21976;-78
2023/03/11 01:24:56;;;;;;;7.50;5.10;;;;;;;7.56;70.76;97534.89;113001;1239;21976;-79
2023/03/11 01:27:24;;;;;;;7.70;4.90;;;;;;;7.57;70.67;97535.88;112910;1239;21945;-79
2023/03/11 01:29:53;;;;;;;7.90;5.30;;;;;;;7.57;70.81;97533.77;112894;1239;21969;-78
2023/03/11 01:32:22;;;;;;;9.30;6.00;;;;;;;7.59;70.88;97537.45;112940;1239;22443;-79
2023/03/11 01:34:51;;;;;;;7.60;5.60;;;;;;;7.60;71.01;97537.20;113165;1233;22699;-78
2023/03/11 01:37:20;;;;;;;8.20;5.70;;;;;;;7.63;70.96;97538.70;113322;1232;21946;-79
2023/03/11 01:39:49;;;;;;;8.60;5.50;;;;;;;7.66;71.04;97537.31;113382;1232;21937;-78
2023/03/11 01:42:17;;;;;;;9.20;6.20;;;;;;;7.69;71.00;97535.73;113349;1232;22694;-79
2023/03/11 01:44:46;;;;;;;8.30;5.60;;;;;;;7.69;70.86;97537.83;113527;1232;23707;-79
2023/03/11 01:47:35;;;;;;;9.00;6.30;;;;;;;7.68;70.88;97541.50;113480;1232;23777;-79
2023/03/11 01:50:10;;;;;;;7.50;6.10;;;;;;;7.67;71.00;97540.56;113423;1232;21969;-78
2023/03/11 01:52:42;;;;;;;9.00;6.90;;;;;;;7.67;71.04;97535.36;113548;1232;21960;-78
2023/03/11 01:55:14;;;;;;;9.40;7.40;;;;;;;7.68;70.98;97537.33;113501;1232;21946;-78
2023/03/11 01:57:46;;;;;;;8.70;6.70;;;;;;;7.66;71.03;97537.64;113486;1232;22075;-79
2023/03/11 02:00:20;;;;;;;9.20;7.10;;;;;;;7.65;71.07;97538.91;113499;1232;22420;-78
2023/03/11 02:02:58;;;;;;;10.00;7.20;;;;;;;7.65;71.23;97537.20;113530;1233;21970;-78
2023/03/11 02:05:27;;;;;;;9.80;6.70;;;;;;;7.67;71.39;97531.06;113593;1231;21941;-78
2023/03/11 02:07:57;;;;;;;7.70;6.60;;;;;;;7.70;71.46;97533.02;113569;1232;21950;-79
2023/03/11 02:10:30;;;;;;;11.00;7.40;;;;;;;7.75;71.42;97530.42;113328;1232;21940;-78
2023/03/11 02:12:59;;;;;;;8.00;6.60;;;;;;;7.80;71.51;97534.40;113495;1232;21939;-79
2023/03/11 02:15:29;;;;;;;8.70;7.00;;;;;;;7.86;71.59;97535.40;113245;1232;21918;-78
2023/03/11 02:18:04;;;;;;;8.00;5.90;;;;;;;7.91;71.53;97534.02;113323;1224;23001;-78
2023/03/11 02:21:26;;;;;;;7.20;6.20;;;;;;;7.94;71.46;97537.05;113301;1232;23004;-78
2023/03/11 02:24:24;;;;;;;8.60;6.30;;;;;;;7.94;71.50;97538.44;113592;1233;23569;-78
2023/03/11 02:27:08;;;;;;;6.60;5.30;;;;;;;7.94;71.43;97536.85;113538;1232;21948;-78
2023/03/11 02:29:43;;;;;;;6.40;5.50;;;;;;;7.96;71.41;97541.02;113307;1232;23706;-79
2023/03/11 02:32:14;;;;;;;6.70;5.40;;;;;;;8.01;71.39;97542.77;113489;1233;23741;-80
2023/03/11 02:34:44;;;;;;;6.10;5.10;;;;;;;8.06;71.32;97546.42;113394;1232;22837;-79
2023/03/11 02:37:16;;;;;;;5.20;4.40;;;;;;;8.10;71.12;97545.62;113658;1232;22699;-80
2023/03/11 02:39:54;;;;;;;7.20;4.80;;;;;;;8.11;70.99;97546.36;113317;1232;21948;-79
2023/03/11 02:42:31;;;;;;;5.60;4.00;;;;;;;8.13;71.01;97547.15;113364;1233;22710;-78
2023/03/11 02:45:17;;;;;;;4.00;3.60;;;;;;;8.14;71.07;97551.19;113437;1232;21964;-78
2023/03/11 02:47:52;;;;;;;4.20;3.40;;;;;;;8.10;70.97;97554.94;112739;1239;21941;-80
2023/03/11 02:50:24;;;;;;;4.70;3.50;;;;;;;8.07;71.00;97551.18;112723;1239;21966;-78
2023/03/11 02:52:58;;;;;;;3.70;3.30;;;;;;;8.06;71.05;97556.33;112835;1239;22754;-81
2023/03/11 02:55:27;;;;;;;2.90;2.70;;;;;;;8.05;71.04;97557.08;112924;1239;22821;-77
2023/03/11 02:57:55;;;;;;;3.10;2.80;;;;;;;8.02;70.95;97553.66;112445;1239;22970;-79
2023/03/11 03:00:27;;;;;;;3.40;3.10;;;;;;;7.98;70.90;97556.85;112803;1239;22175;-78
2023/03/11 03:03:10;;;;;;;6.00;5.00;;;;;;;7.95;71.02;97557.54;111245;1239;1961094;-77
2023/03/11 03:05:42;;;;;;;8.00;4.20;;;;;;;7.91;71.03;97559.73;112570;1234;21999;-78
2023/03/11 03:08:11;;;;;;;3.00;2.70;;;;;;;7.87;70.98;97558.67;112565;1241;23213;-78
2023/03/11 03:10:40;;;;;;;3.00;1.90;;;;;;;7.84;70.95;97559.29;112412;1241;21939;-79
2023/03/11 03:13:11;;;;;;;1.80;1.20;;;;;;;7.76;70.73;97563.12;112410;1241;22451;-78
2023/03/11 03:15:39;;;;;;;1.50;1.30;;;;;;;7.68;70.75;97565.88;112503;1241;23613;-79
2023/03/11 03:18:11;;;;;;;2.20;1.60;;;;;;;7.63;70.82;97562.61;112405;1241;21967;-78
2023/03/11 03:20:39;;;;;;;1.80;1.10;;;;;;;7.57;70.76;97563.92;112637;1240;23713;-78
2023/03/11 03:23:08;;;;;;;2.90;1.70;;;;;;;7.49;70.74;97567.91;112726;1241;21994;-78
2023/03/11 03:25:42;;;;;;;4.20;1.80;;;;;;;7.43;70.73;97573.33;112579;1232;21939;-78
2023/03/11 03:28:15;;;;;;;2.00;1.40;;;;;;;7.37;70.78;97577.58;112785;1239;24368;-78
2023/03/11 03:30:49;;;;;;;2.50;1.40;;;;;;;7.32;70.77;97581.73;112473;1239;21976;-79
2023/03/11 03:33:18;;;;;;;1.70;0.80;;;;;;;7.29;70.59;97585.39;112272;1243;23564;-78
2023/03/11 03:35:46;;;;;;;1.30;0.70;;;;;;;7.25;70.56;97583.77;112398;1243;23018;-78
2023/03/11 03:38:25;;;;;;;2.50;1.30;;;;;;;7.20;70.44;97585.86;112469;1243;23822;-77
2023/03/11 03:40:54;;;;;;;3.00;0.80;;;;;;;7.15;70.38;97583.75;112310;1243;24286;-77
2023/03/11 03:43:23;;;;;;;1.90;0.90;;;;;;;7.12;70.43;97587.57;112121;1242;22716;-78
2023/03/11 03:46:03;;;;;;;1.90;1.10;;;;;;;7.11;70.48;97588.34;112251;1243;22837;-77
2023/03/11 03:48:38;;;;;;;3.30;1.70;;;;;;;7.12;70.41;97589.51;112187;1236;22381;-79
2023/03/11 03:51:10;;;;;;;3.10;1.80;;;;;;;7.12;70.35;97591.53;112367;1243;22725;-78
2023/03/11 03:53:45;;;;;;;4.20;2.10;;;;;;;7.14;70.38;97587.48;112848;1238;21953;-78
2023/03/11 03:56:17;;;;;;;3.80;1.90;;;;;;;7.14;70.31;97588.69;112798;1238;22728;-77
2023/03/11 03:58:46;;;;;;;1.90;1.40;;;;;;;7.11;70.09;97591.11;113442;1232;24351;-78
2023/03/11 04:01:17;;;;;;;3.30;1.60;;;;;;;7.08;70.06;97595.96;113243;1233;22704;-77
2023/03/11 04:03:45;;;;;;;5.60;1.70;;;;;;;7.05;69.99;97598.27;113475;1232;21978;-78
2023/03/11 04:06:17;;;;;;;4.20;1.60;;;;;;;7.00;69.93;97602.55;112809;1239;21969;-80
2023/03/11 04:08:47;;;;;;;1.60;1.20;;;;;;;6.95;69.97;97602.23;112850;1238;21941;-82
2023/03/11 04:11:16;;;;;;;27.30;18.10;;;;;;;6.92;69.94;97605.18;112066;1246;23587;-78
2023/03/11 04:13:45;;;;;;;5.10;2.60;;;;;;;6.91;70.02;97607.67;111247;1253;22023;-80
2023/03/11 04:16:22;;;;;;;2.90;1.80;;;;;;;6.90;70.01;97609.94;111628;1253;21980;-78
2023/03/11 04:18:53;;;;;;;2.20;1.40;;;;;;;6.90;69.82;97609.82;111248;1247;21966;-78
2023/03/11 04:21:23;;;;;;;3.10;2.00;;;;;;;6.85;69.76;97612.20;110873;1257;22282;-78
2023/03/11 04:23:51;;;;;;;1.30;0.70;;;;;;;6.79;69.69;97616.59;111127;1257;22084;-79
2023/03/11 04:26:21;;;;;;;3.90;1.40;;;;;;;6.73;69.37;97621.30;110350;1260;21980;-78
2023/03/11 04:28:52;;;;;;;1.30;0.80;;;;;;;6.65;69.22;97624.90;110651;1257;21967;-77
2023/03/11 04:31:23;;;;;;;3.90;2.80;;;;;;;6.58;69.16;97631.05;111219;1245;23688;-80
2023/03/11 04:33:55;;;;;;;1.70;0.90;;;;;;;6.50;69.01;97631.90;112007;1245;21982;-78
2023/03/11 04:36:24;;;;;;;0.90;0.60;;;;;;;6.44;69.13;97635.41;111896;1245;21962;-78
2023/03/11 04:38:56;;;;;;;1.50;0.80;;;;;;;6.38;69.10;97635.98;112082;1245;23222;-77
2023/03/11 04:41:26;;;;;;;0.90;0.50;;;;;;;6.33;69.25;97640.66;111841;1245;21968;-79
2023/03/11 04:43:58;;;;;;;1.60;0.70;;;;;;;6.28;68.98;97644.58;111875;1241;22479;-79
2023/03/11 04:46:29;;;;;;;1.30;0.80;;;;;;;6.26;69.21;97644.85;113465;1233;23603;-79
2023/03/11 04:49:03;;;;;;;1.00;0.70;;;;;;;6.21;69.28;97647.77;113488;1233;21959;-79
2023/03/11 04:51:32;;;;;;;2.70;0.70;;;;;;;6.16;69.33;97649.11;113393;1233;23021;-79
2023/03/11 04:54:02;;;;;;;0.80;0.70;;;;;;;6.13;69.45;97654.00;113299;1233;21935;-78
2023/03/11 04:56:34;;;;;;;1.50;1.00;;;;;;;6.09;69.56;97655.58;113411;1232;22445;-79
2023/03/11 04:59:04;;;;;;;2.10;1.20;;;;;;;6.03;69.61;97657.02;113260;1232;23683;-79
2023/03/11 05:01:43;;;;;;;23.80;16.40;;;;;;;5.99;69.85;97660.89;112662;1239;23367;-79
2023/03/11 05:04:12;;;;;;;6.50;4.70;;;;;;;5.97;70.12;97665.69;112962;1239;21947;-79
2023/03/11 05:06:42;;;;;;;7.20;6.00;;;;;;;5.96;70.29;97668.30;112609;1239;21977;-79
2023/03/11 05:09:11;;;;;;;2.50;1.70;;;;;;;5.93;70.38;97682.11;112902;1239;24323;-79
2023/03/11 05:11:40;;;;;;;1.40;1.00;;;;;;;5.79;70.04;97697.61;112832;1239;21948;-78
2023/03/11 05:14:12;;;;;;;1.80;0.90;;;;;;;5.51;69.45;97706.55;112555;1239;21992;-78
2023/03/11 05:16:41;;;;;;;1.20;0.80;;;;;;;5.24;69.46;97711.73;112758;1239;21947;-78
2023/03/11 05:21:58;;;;;;;5.20;1.20;;;;;;;4.82;69.64;97723.12;113431;1232;22692;-78
2023/03/11 05:24:28;;;;;;;2.10;1.20;;;;;;;4.63;69.74;97724.30;113279;1233;21939;-78
2023/03/11 05:26:57;;;;;;;3.50;1.60;;;;;;;4.53;70.02;97726.10;113084;1233;21947;-79
2023/03/11 05:29:27;;;;;;;2.70;2.20;;;;;;;4.44;70.08;97730.21;112505;1239;21945;-78
2023/03/11 05:31:56;;;;;;;2.80;1.60;;;;;;;4.38;70.22;97728.98;112099;1245;21953;-79
2023/03/11 05:34:24;;;;;;;3.80;1.90;;;;;;;4.28;70.17;97728.10;112263;1245;21960;-78
2023/03/11 05:36:53;;;;;;;2.70;1.80;;;;;;;4.19;70.29;97729.10;112098;1245;21982;-79
2023/03/11 05:39:23;;;;;;;5.10;3.30;;;;;;;4.13;70.47;97730.48;111425;1252;22023;-78
2023/03/11 05:41:55;;;;;;;1.90;1.30;;;;;;;4.08;70.55;97733.66;111688;1249;21934;-79
2023/03/11 05:44:27;;;;;;;1.50;1.30;;;;;;;4.04;70.74;97738.52;111288;1251;22619;-77
2023/03/11 05:46:59;;;;;;;1.10;0.90;;;;;;;4.01;70.90;97740.79;111398;1251;24479;-78
2023/03/11 05:49:28;;;;;;;;;;;;;;;3.95;70.97;97740.92;111517;1246;21947;-78
2023/03/11 05:51:59;;;;;;;3.40;1.20;;;;;;;3.81;70.97;97745.42;112138;1246;23059;-77
2023/03/11 05:54:30;;;;;;;2.10;1.60;;;;;;;3.76;70.98;97752.91;112295;1239;21954;-79
2023/03/11 05:56:59;;;;;;;2.00;1.50;;;;;;;3.77;71.38;97756.65;112450;1239;21954;-78
2023/03/11 05:59:28;;;;;;;2.00;1.70;;;;;;;3.79;71.37;97759.79;112797;1239;22704;-78
2023/03/11 06:02:03;;;;;;;2.50;1.90;;;;;;;3.73;71.26;97763.19;112490;1239;22830;-78
2023/03/11 06:04:32;;;;;;;2.50;1.90;;;;;;;3.70;71.41;97766.27;112986;1234;21941;-78
2023/03/11 06:07:03;;;;;;;2.90;1.90;;;;;;;3.69;71.39;97767.70;113877;1233;22012;-79
2023/03/11 06:09:37;;;;;;;;;;;;;;;3.65;71.31;97773.75;112765;1239;23752;-79
2023/03/11 06:12:11;;;;;;;1.80;1.30;;;;;;;3.51;71.58;97777.90;113106;1239;21945;-78
2023/03/11 06:15:04;;;;;;;4.60;3.50;;;;;;;3.48;71.74;97779.56;112706;1238;23034;-78
2023/03/11 06:17:43;;;;;;;2.90;2.40;;;;;;;3.50;71.79;97788.77;112870;1238;21962;-78
2023/03/11 06:20:21;;;;;;;4.40;3.50;;;;;;;3.53;71.77;97791.23;112919;1239;23749;-79
2023/03/11 06:22:51;;;;;;;3.60;2.60;;;;;;;3.50;71.71;97794.98;112629;1239;23585;-78
2023/03/11 06:25:22;;;;;;;3.30;2.70;;;;;;;3.50;71.81;97799.10;112830;1239;24306;-77
2023/03/11 06:27:52;;;;;;;5.50;4.80;;;;;;;3.46;71.73;97801.17;112957;1239;22111;-78
2023/03/11 06:30:24;;;;;;;34.40;26.00;;;;;;;3.43;71.75;97802.00;113016;1238;21962;-78
2023/03/11 06:33:01;;;;;;;15.60;10.40;;;;;;;3.44;71.87;97803.52;112833;1238;21989;-78
2023/03/11 06:35:30;;;;;;;7.40;5.60;;;;;;;3.45;71.83;97807.77;113361;1232;21961;-79
2023/03/11 06:37:59;;;;;;;4.70;3.50;;;;;;;3.43;71.75;97808.89;113346;1231;23671;-79
2023/03/11 06:40:28;;;;;;;6.20;4.80;;;;;;;3.38;71.72;97810.38;113921;1233;21919;-79
2023/03/11 06:42:57;;;;;;;6.00;3.00;;;;;;;3.33;71.81;97811.45;113257;1233;21941;-79
2023/03/11 06:45:27;;;;;;;4.40;3.40;;;;;;;3.30;71.83;97810.04;113103;1232;23601;-78
2023/03/11 06:47:57;;;;;;;5.30;3.40;;;;;;;3.30;72.01;97815.19;113541;1233;21957;-79
2023/03/11 06:50:27;;;;;;;4.70;3.40;;;;;;;3.32;72.11;97814.41;113399;1233;21993;-79
2023/03/11 06:52:57;;;;;;;5.40;4.50;;;;;;;3.31;72.07;97820.14;113765;1232;23733;-78
2023/03/11 06:55:43;;;;;;;7.90;6.70;;;;;;;3.33;72.20;97831.08;113307;1232;22599;-78
2023/03/11 06:58:12;;;;;;;6.90;6.00;;;;;;;3.38;72.31;97830.31;113376;1233;22353;-80
2023/03/11 07:01:20;;;;;;;6.90;4.80;;;;;;;3.39;72.26;97838.81;113443;1233;21967;-82
2023/03/11 07:04:10;;;;;;;5.60;3.60;;;;;;;3.34;72.17;97848.34;113569;1232;23610;-81
2023/03/11 07:06:44;;;;;;;3.20;2.70;;;;;;;3.34;72.29;97851.11;113541;1232;24256;-77
2023/03/11 07:09:28;;;;;;;3.60;2.90;;;;;;;3.42;72.68;97857.42;113320;1233;21973;-78
2023/03/11 07:12:00;;;;;;;3.10;2.70;;;;;;;3.51;72.76;97863.70;113494;1233;22998;-77
2023/03/11 07:14:38;;;;;;;4.70;3.80;;;;;;;3.59;72.75;97871.54;113420;1233;22423;-77
2023/03/11 07:17:07;;;;;;;6.60;5.10;;;;;;;3.67;72.73;97870.15;113059;1233;21929;-77
2023/03/11 07:19:51;;;;;;;9.20;6.20;;;;;;;3.71;72.62;97873.35;113478;1233;21934;-77
2023/03/11 07:22:22;;;;;;;3.70;3.40;;;;;;;3.75;72.57;97878.34;113486;1233;21942;-78
2023/03/11 07:24:52;;;;;;;4.00;3.00;;;;;;;3.76;72.33;97882.59;113547;1232;21951;-76
2023/03/11 07:27:23;;;;;;;4.90;2.80;;;;;;;3.76;72.20;97889.83;113428;1233;24267;-77
2023/03/11 07:29:55;;;;;;;3.00;2.60;;;;;;;3.76;72.19;97893.09;113402;1232;22996;-77
2023/03/11 07:32:26;;;;;;;3.80;2.80;;;;;;;3.80;72.30;97901.52;112526;1239;23607;-76
2023/03/11 07:34:55;;;;;;;4.40;4.00;;;;;;;3.82;72.09;97910.19;111813;1245;21988;-77
2023/03/11 07:37:24;;;;;;;5.10;3.90;;;;;;;3.76;71.66;97919.39;112075;1245;21984;-76
2023/03/11 07:39:53;;;;;;;5.00;4.50;;;;;;;3.73;71.76;97925.58;112044;1245;21967;-74
2023/03/11 07:42:39;;;;;;;5.60;5.10;;;;;;;3.75;72.39;97931.33;111505;1250;22740;-79
2023/03/11 07:45:18;;;;;;;6.80;6.10;;;;;;;3.86;72.56;97936.11;111473;1251;22961;-77
2023/03/11 07:47:53;;;;;;;11.10;9.80;;;;;;;3.92;72.29;97942.90;111367;1251;22368;-76
2023/03/11 07:50:26;;;;;;;;;;;;;;;3.94;72.15;97951.23;111331;1247;23769;-77
2023/03/11 07:52:57;;;;;;;8.00;7.20;;;;;;;3.93;72.68;97963.67;111711;1247;21995;-77
2023/03/11 07:55:28;;;;;;;18.20;16.40;;;;;;;3.93;72.04;97969.16;111808;1247;21962;-78
2023/03/11 07:57:57;;;;;;;8.10;7.30;;;;;;;3.73;71.08;97982.67;111789;1247;21966;-78
2023/03/11 08:00:25;;;;;;;7.00;6.30;;;;;;;3.49;70.91;97988.30;112420;1233;23009;-77
2023/03/11 08:02:54;;;;;;;8.10;6.60;;;;;;;3.26;70.77;97998.97;113409;1234;23002;-78
2023/03/11 08:05:23;;;;;;;6.80;6.20;;;;;;;3.04;71.02;98010.43;113334;1233;23763;-78
2023/03/11 08:07:55;;;;;;;7.00;6.30;;;;;;;2.88;71.33;98018.52;113638;1234;21965;-78
2023/03/11 08:10:40;;;;;;;10.40;8.30;;;;;;;2.72;71.47;98028.51;113606;1233;21963;-77
2023/03/11 08:13:11;;;;;;;14.40;12.60;;;;;;;2.56;71.58;98043.95;113770;1232;21941;-78
2023/03/11 08:15:50;;;;;;;9.60;8.80;;;;;;;2.45;71.94;98054.53;113597;1232;23672;-78
2023/03/11 08:18:30;;;;;;;11.00;10.10;;;;;;;2.38;72.20;98065.63;113815;1232;21938;-80
2023/03/11 08:21:07;;;;;;;11.10;10.10;;;;;;;2.29;72.29;98077.16;113738;1232;22405;-77
2023/03/11 08:23:36;;;;;;;9.60;8.70;;;;;;;2.20;72.36;98083.35;113221;1233;21958;-78
2023/03/11 08:26:10;;;;;;;9.70;8.80;;;;;;;2.13;72.51;98090.81;112865;1238;21948;-80
2023/03/11 08:28:54;;;;;;;10.30;9.40;;;;;;;2.08;72.63;98097.06;113228;1239;21989;-79
2023/03/11 08:31:37;;;;;;;10.70;9.50;;;;;;;2.06;72.89;98112.73;113304;1238;21939;-79
2023/03/11 08:34:19;;;;;;;12.50;11.50;;;;;;;2.00;72.90;98122.07;112944;1239;21988;-78
2023/03/11 08:36:52;;;;;;;10.30;9.40;;;;;;;1.93;72.92;98135.34;113133;1239;21952;-80
2023/03/11 08:39:26;;;;;;;10.60;9.70;;;;;;;1.87;73.00;98142.45;113297;1239;22094;-79
2023/03/11 08:42:07;;;;;;;19.20;17.30;;;;;;;1.83;73.24;98152.73;112958;1239;22478;-77
2023/03/11 08:44:51;;;;;;;9.90;9.00;;;;;;;1.82;73.40;98161.70;113048;1239;21956;-78
2023/03/11 08:47:24;;;;;;;10.30;9.40;;;;;;;1.82;73.44;98179.69;113263;1239;21968;-78
2023/03/11 08:50:02;;;;;;;10.10;9.20;;;;;;;1.78;73.60;98188.38;112837;1233;23007;-79
2023/03/11 08:52:51;;;;;;;10.20;9.30;;;;;;;1.70;73.35;98202.23;113532;1233;21932;-78
2023/03/11 08:55:39;;;;;;;10.70;9.50;;;;;;;1.60;73.31;98217.17;113804;1233;23025;-78
2023/03/11 08:58:23;;;;;;;9.60;8.80;;;;;;;1.53;73.43;98228.05;113766;1233;23595;-80
2023/03/11 09:01:07;;;;;;;10.20;9.20;;;;;;;1.49;73.75;98237.79;113139;1238;22402;-79
2023/03/11 09:03:49;;;;;;;11.90;9.60;;;;;;;1.45;73.67;98246.48;112519;1239;22437;-79
2023/03/11 09:06:23;;;;;;;13.70;12.40;;;;;;;1.41;73.81;98261.02;112184;1242;23714;-78
2023/03/11 09:08:58;;;;;;;15.30;13.80;;;;;;;1.39;73.90;98268.64;112379;1243;21989;-79
2023/03/11 09:11:36;;;;;;;14.30;12.90;;;;;;;1.33;73.95;98282.55;112703;1243;21992;-78
2023/03/11 09:14:05;;;;;;;13.80;12.60;;;;;;;1.27;74.04;98288.21;112300;1243;23743;-77
2023/03/11 09:16:35;;;;;;;13.60;12.30;;;;;;;1.25;74.32;98304.76;112313;1243;23012;-78
2023/03/11 09:19:07;;;;;;;13.60;12.30;;;;;;;1.21;74.34;98313.61;112584;1238;23651;-78
2023/03/11 09:21:38;;;;;;;14.20;12.90;;;;;;;1.19;74.46;98316.77;112813;1239;22787;-77
2023/03/11 09:24:19;;;;;;;13.30;12.00;;;;;;;1.19;74.57;98326.02;113336;1233;21958;-80
2023/03/11 09:27:02;;;;;;;15.40;13.80;;;;;;;1.19;74.70;98337.15;113750;1233;21949;-78
2023/03/11 09:29:38;;;;;;;12.70;11.50;;;;;;;1.19;74.78;98341.23;113512;1233;21975;-80
2023/03/11 09:32:19;;;;;;;;;;;;;;;1.16;74.91;98345.45;113361;1233;21922;-77
2023/03/11 09:34:56;;;;;;;12.80;11.00;;;;;;;1.08;74.98;98358.21;113669;1233;21938;-78
2023/03/11 09:37:29;;;;;;;10.80;9.80;;;;;;;1.10;75.18;98363.98;113031;1233;23702;-79
2023/03/11 09:40:00;;;;;;;11.30;10.30;;;;;;;1.16;75.17;98375.98;113259;1233;23006;-78
2023/03/11 09:43:26;;;;;;;12.20;11.10;;;;;;;1.21;75.29;98383.87;113191;1233;22100;-77
2023/03/11 09:46:14;;;;;;;9.00;8.10;;;;;;;1.14;75.28;98395.89;112225;1245;21936;-78
2023/03/11 09:48:58;;;;;;;10.00;9.00;;;;;;;1.10;75.25;98404.94;111650;1251;21968;-79
2023/03/11 09:51:41;;;;;;;9.00;7.80;;;;;;;1.10;75.41;98415.70;111632;1252;23022;-79
2023/03/11 09:54:12;;;;;;;8.40;7.70;;;;;;;1.10;75.40;98422.40;111031;1255;23801;-77
2023/03/11 09:56:44;;;;;;;10.10;9.00;;;;;;;1.13;75.44;98428.50;111163;1251;21977;-79
2023/03/11 09:59:32;;;;;;;10.40;9.10;;;;;;;1.14;75.32;98437.19;111101;1255;22025;-78
2023/03/11 10:02:02;;;;;;;8.80;8.00;;;;;;;1.14;75.41;98447.45;111278;1255;23632;-77
2023/03/11 10:05:19;;;;;;;7.40;6.70;;;;;;;1.16;75.42;98459.92;111442;1252;24349;-77
2023/03/11 10:08:13;;;;;;;7.10;6.40;;;;;;;1.13;75.40;98467.36;111914;1246;21936;-82
2023/03/11 10:10:58;;;;;;;6.70;6.00;;;;;;;1.10;75.38;98483.71;112386;1246;23001;-79
2023/03/11 10:13:49;;;;;;;8.40;7.00;;;;;;;1.10;75.34;98492.83;112506;1241;22106;-80
2023/03/11 10:16:53;;;;;;;8.30;7.20;;;;;;;1.10;75.45;98500.36;112765;1241;21984;-80
2023/03/11 10:19:42;;;;;;;7.90;6.70;;;;;;;1.11;75.37;98506.49;112232;1246;23690;-80
2023/03/11 10:22:35;;;;;;;7.60;6.20;;;;;;;1.11;75.33;98512.15;112419;1242;21950;-81
2023/03/11 10:25:28;;;;;;;7.50;6.80;;;;;;;1.12;75.36;98520.86;112907;1241;21978;-80
2023/03/11 10:28:13;;;;;;;8.00;7.30;;;;;;;1.14;75.48;98528.48;112769;1241;21963;-81
2023/03/11 10:31:00;;;;;;;6.20;5.60;;;;;;;1.18;75.42;98533.89;112623;1241;21948;-80
2023/03/11 10:33:43;;;;;;;8.40;6.90;;;;;;;1.20;75.20;98543.77;112187;1247;21985;-81
2023/03/11 10:36:26;;;;;;;7.40;6.70;;;;;;;1.18;75.06;98551.52;112188;1247;22338;-80
2023/03/11 10:38:55;;;;;;;7.40;6.40;;;;;;;1.16;75.27;98555.86;111894;1247;21942;-81
2023/03/11 10:41:54;;;;;;;7.10;6.40;;;;;;;1.15;75.25;98564.12;112255;1247;21993;-80
2023/03/11 10:44:33;;;;;;;8.70;7.90;;;;;;;1.10;75.06;98572.83;111990;1247;21970;-80
2023/03/11 10:47:05;;;;;;;8.30;7.50;;;;;;;1.06;75.10;98575.48;112217;1247;21960;-81
2023/03/11 10:49:37;;;;;;;9.20;7.30;;;;;;;1.08;75.08;98579.05;112198;1247;21970;-81
2023/03/11 10:52:06;;;;;;;8.60;6.80;;;;;;;1.10;75.21;98580.02;112399;1241;21949;-80
2023/03/11 10:54:42;;;;;;;6.80;6.20;;;;;;;1.10;75.15;98585.66;112648;1241;21989;-80
2023/03/11 10:57:35;;;;;;;7.40;6.00;;;;;;;1.10;75.16;98593.05;112944;1237;22035;-81
2023/03/11 11:00:16;;;;;;;13.80;7.90;;;;;;;1.08;75.11;98606.98;113062;1237;22003;-80
2023/03/11 11:02:57;;;;;;;8.40;7.50;;;;;;;1.08;75.09;98609.73;113401;1236;22342;-83
2023/03/11 11:05:36;;;;;;;8.30;7.40;;;;;;;1.08;75.09;98616.39;113093;1230;23007;-80
2023/03/11 11:08:12;;;;;;;7.90;7.10;;;;;;;1.04;74.85;98627.30;113117;1237;22063;-78
2023/03/11 11:10:59;;;;;;;8.10;7.30;;;;;;;0.96;74.73;98631.26;113087;1236;22348;-79
2023/03/11 11:13:35;;;;;;;29.60;26.00;;;;;;;0.96;75.06;98641.38;112978;1236;23722;-79
2023/03/11 11:16:20;;;;;;;9.60;7.00;;;;;;;1.06;75.30;98648.66;113027;1238;21947;-81
2023/03/11 11:19:14;;;;;;;7.10;6.40;;;;;;;1.11;74.98;98651.29;113379;1237;22004;-80
2023/03/11 11:21:49;;;;;;;8.30;6.10;;;;;;;1.09;74.47;98652.69;112634;1242;21965;-79
2023/03/11 11:24:27;;;;;;;7.40;6.00;;;;;;;1.07;74.64;98661.14;112429;1242;23009;-78
2023/03/11 11:27:12;;;;;;;6.50;5.80;;;;;;;1.11;74.75;98669.08;112596;1242;21938;-81
2023/03/11 11:29:47;;;;;;;7.10;5.90;;;;;;;1.14;74.65;98674.98;112798;1241;21960;-80
2023/03/11 11:32:28;;;;;;;8.70;6.70;;;;;;;1.19;74.67;98679.14;112695;1239;21962;-80
2023/03/11 11:35:15;;;;;;;7.70;6.50;;;;;;;1.27;74.63;98687.17;112989;1239;21956;-80
2023/03/11 11:37:55;;;;;;;6.80;5.90;;;;;;;1.31;74.28;98689.80;113065;1239;24547;-80
2023/03/11 11:40:32;;;;;;;13.40;6.90;;;;;;;1.32;73.95;98701.09;113487;1232;21925;-80
2023/03/11 11:43:28;;;;;;;9.80;7.30;;;;;;;1.32;73.71;98702.46;112732;1239;22979;-81
2023/03/11 11:46:11;;;;;;;6.90;5.90;;;;;;;1.31;73.68;98710.70;112705;1239;22524;-80
2023/03/11 11:48:44;;;;;;;6.20;5.30;;;;;;;1.33;73.67;98718.04;112716;1239;21942;-81
2023/03/11 11:51:56;;;;;;;16.60;14.30;;;;;;;1.33;73.34;98726.43;113305;1239;23695;-80
2023/03/11 11:54:49;;;;;;;10.10;7.00;;;;;;;1.27;73.22;98731.90;112094;1247;21951;-81
2023/03/11 11:57:31;;;;;;;9.10;6.70;;;;;;;1.27;73.45;98742.86;112321;1246;23042;-80
2023/03/11 12:00:44;;;;;;;7.60;6.30;;;;;;;1.30;73.42;98745.02;112138;1247;23769;-79
2023/03/11 12:04:06;;;;;;;7.80;6.50;;;;;;;1.30;73.31;98752.71;112957;1240;21971;-80
2023/03/11 12:06:53;;;;;;;9.10;7.00;;;;;;;1.35;73.36;98759.98;113266;1240;22244;-80
2023/03/11 12:10:10;;;;;;;15.10;8.00;;;;;;;1.47;73.71;98764.10;113011;1240;22008;-79
2023/03/11 12:12:57;;;;;;;9.60;7.00;;;;;;;1.64;73.73;98769.99;112960;1240;23062;-81
2023/03/11 12:15:37;;;;;;;9.00;6.40;;;;;;;1.75;73.33;98773.83;113112;1240;22830;-81